createdAt,value
2017-12-25T00:00:19.810Z,11.29
2017-12-25T00:01:19.804Z,11.25
2017-12-25T00:02:19.843Z,11.28
2017-12-25T00:03:19.351Z,11.29
2017-12-25T00:04:19.903Z,11.22
2017-12-25T00:05:19.653Z,11.27
2017-12-25T00:06:34.589Z,11.29
2017-12-25T00:07:19.938Z,11.32
2017-12-25T00:08:19.694Z,11.28
2017-12-25T00:09:19.741Z,11.27
2017-12-25T00:10:19.991Z,11.28
2017-12-25T00:11:19.764Z,11.25
2017-12-25T00:12:20.055Z,11.25
2017-12-25T00:13:20.036Z,11.27
2017-12-25T00:14:20.061Z,11.28
2017-12-25T00:15:34.754Z,11.28
2017-12-25T00:16:19.855Z,11.27
2017-12-25T00:17:19.883Z,11.29
2017-12-25T00:18:19.645Z,11.25
2017-12-25T00:19:20.169Z,11.37
2017-12-25T00:20:20.242Z,11.36
2017-12-25T00:21:20.241Z,11.22
2017-12-25T00:22:19.964Z,11.28
2017-12-25T00:23:20.262Z,11.35
2017-12-25T00:24:34.942Z,11.27
2017-12-25T00:25:19.781Z,11.27
2017-12-25T00:26:20.326Z,11.25
2017-12-25T00:27:20.307Z,11.24
2017-12-25T00:28:20.354Z,11.27
2017-12-25T00:29:20.102Z,11.22
2017-12-25T00:30:35.071Z,11.21
2017-12-25T00:31:20.398Z,11.24
2017-12-25T00:33:20.190Z,11.27
2017-12-25T00:35:20.485Z,11.27
2017-12-25T00:36:20.511Z,11.27
2017-12-25T00:37:20.290Z,11.27
2017-12-25T00:38:20.523Z,11.24
2017-12-25T00:39:20.591Z,11.25
2017-12-25T00:40:20.580Z,11.29
2017-12-25T00:41:20.609Z,11.17
2017-12-25T00:42:20.125Z,11.25
2017-12-25T00:43:20.680Z,11.28
2017-12-25T00:44:20.407Z,11.14
2017-12-25T00:46:20.708Z,11.18
2017-12-25T00:47:20.527Z,11.21
2017-12-25T00:50:20.515Z,11.18
2017-12-25T00:51:20.787Z,11.24
2017-12-25T00:52:20.564Z,11.24
2017-12-25T00:53:20.859Z,11.28
2017-12-25T00:54:20.589Z,11.27
2017-12-25T00:55:20.872Z,11.22
2017-12-25T00:56:20.902Z,11.24
2017-12-25T00:57:20.662Z,11.25
2017-12-25T00:58:20.963Z,11.21
2017-12-25T01:00:20.977Z,11.14
2017-12-25T01:01:20.726Z,11.15
2017-12-25T01:02:35.697Z,11.07
2017-12-25T01:03:21.031Z,11.09
2017-12-25T01:04:20.784Z,11.17
2017-12-25T01:05:21.062Z,11.15
2017-12-25T01:06:21.099Z,11.11
2017-12-25T01:07:21.100Z,11.07
2017-12-25T01:08:35.793Z,11.14
2017-12-25T01:09:21.131Z,11.07
2017-12-25T01:11:21.177Z,11.19
2017-12-25T01:13:21.251Z,11.17
2017-12-25T01:14:21.247Z,11.14
2017-12-25T01:15:21.001Z,11.14
2017-12-25T01:16:21.296Z,11.11
2017-12-25T01:17:20.792Z,11.14
2017-12-25T01:18:35.985Z,11.09
2017-12-25T01:19:21.322Z,11.14
2017-12-25T01:20:21.133Z,11.14
2017-12-25T01:21:21.368Z,11.17
2017-12-25T01:22:21.177Z,11.11
2017-12-25T01:23:35.829Z,11.07
2017-12-25T01:24:21.417Z,11.14
2017-12-25T01:25:21.189Z,11.11
2017-12-25T01:26:21.464Z,11.15
2017-12-25T01:27:21.478Z,11.09
2017-12-25T01:28:21.534Z,11.07
2017-12-25T01:29:21.573Z,11.11
2017-12-25T01:30:21.555Z,11.09
2017-12-25T01:31:21.576Z,11.1
2017-12-25T01:32:21.333Z,11.11
2017-12-25T01:33:21.610Z,11.07
2017-12-25T01:34:36.294Z,11.03
2017-12-25T01:35:21.638Z,11.04
2017-12-25T01:37:21.721Z,11.06
2017-12-25T01:38:21.689Z,11.06
2017-12-25T01:39:21.715Z,10.99
2017-12-25T01:40:21.729Z,11.03
2017-12-25T01:41:21.762Z,10.99
2017-12-25T01:42:21.770Z,11.09
2017-12-25T01:43:21.790Z,11.06
2017-12-25T01:44:21.562Z,11.02
2017-12-25T01:45:21.850Z,11.02
2017-12-25T01:46:21.843Z,10.97
2017-12-25T01:47:21.874Z,11.06
2017-12-25T01:48:21.881Z,10.96
2017-12-25T01:49:21.693Z,11.02
2017-12-25T01:50:36.612Z,11.02
2017-12-25T01:51:21.980Z,11
2017-12-25T01:52:21.966Z,10.94
2017-12-25T01:53:21.998Z,10.97
2017-12-25T01:54:22.030Z,11
2017-12-25T01:55:22.071Z,11.02
2017-12-25T01:57:22.078Z,11.04
2017-12-25T01:58:36.772Z,10.89
2017-12-25T01:59:22.104Z,10.96
2017-12-25T02:00:36.797Z,10.94
2017-12-25T02:01:22.162Z,10.92
2017-12-25T02:02:36.861Z,10.89
2017-12-25T02:03:22.327Z,10.92
2017-12-25T02:04:22.235Z,10.91
2017-12-25T02:05:36.926Z,10.96
2017-12-25T02:06:22.236Z,11.04
2017-12-25T02:07:22.285Z,10.96
2017-12-25T02:08:22.296Z,11.07
2017-12-25T02:09:22.301Z,11.03
2017-12-25T02:10:22.325Z,10.96
2017-12-25T02:11:22.376Z,11.03
2017-12-25T02:12:22.380Z,10.99
2017-12-25T02:13:37.073Z,11
2017-12-25T02:14:22.400Z,11.02
2017-12-25T02:15:37.093Z,10.92
2017-12-25T02:16:22.458Z,10.94
2017-12-25T02:17:22.480Z,10.91
2017-12-25T02:18:22.489Z,10.92
2017-12-25T02:19:22.494Z,10.91
2017-12-25T02:20:22.531Z,10.94
2017-12-25T02:22:22.569Z,10.91
2017-12-25T02:23:22.588Z,10.99
2017-12-25T02:24:22.627Z,10.91
2017-12-25T02:26:22.401Z,10.88
2017-12-25T02:27:22.409Z,10.88
2017-12-25T02:28:22.665Z,10.84
2017-12-25T02:29:22.687Z,10.91
2017-12-25T02:31:22.777Z,10.88
2017-12-25T02:32:22.767Z,10.88
2017-12-25T02:33:22.809Z,10.91
2017-12-25T02:34:22.822Z,10.84
2017-12-25T02:35:22.797Z,10.85
2017-12-25T02:36:22.823Z,10.94
2017-12-25T02:37:37.510Z,10.85
2017-12-25T02:38:22.866Z,10.94
2017-12-25T02:40:22.910Z,10.88
2017-12-25T02:41:22.920Z,10.92
2017-12-25T02:42:22.974Z,10.99
2017-12-25T02:43:22.965Z,10.91
2017-12-25T02:44:37.666Z,10.86
2017-12-25T02:45:23.015Z,10.85
2017-12-25T02:46:23.016Z,10.94
2017-12-25T02:47:22.822Z,10.91
2017-12-25T02:48:23.097Z,10.89
2017-12-25T02:49:23.102Z,10.85
2017-12-25T02:50:22.875Z,10.85
2017-12-25T02:51:23.164Z,10.86
2017-12-25T02:52:23.131Z,10.86
2017-12-25T02:53:37.821Z,10.85
2017-12-25T02:54:23.164Z,10.84
2017-12-25T02:55:23.189Z,10.79
2017-12-25T02:56:22.962Z,10.88
2017-12-25T02:57:22.967Z,10.89
2017-12-25T02:58:23.004Z,10.89
2017-12-25T02:59:23.269Z,10.86
2017-12-25T03:00:23.300Z,10.89
2017-12-25T03:01:23.305Z,10.91
2017-12-25T03:02:23.342Z,10.94
2017-12-25T03:03:23.368Z,10.79
2017-12-25T03:05:23.377Z,10.73
2017-12-25T03:07:23.429Z,10.79
2017-12-25T03:08:23.450Z,10.74
2017-12-25T03:09:38.136Z,10.79
2017-12-25T03:10:23.488Z,10.68
2017-12-25T03:11:23.542Z,10.79
2017-12-25T03:12:23.507Z,10.79
2017-12-25T03:13:23.652Z,10.74
2017-12-25T03:14:23.555Z,10.68
2017-12-25T03:15:23.571Z,10.74
2017-12-25T03:16:23.617Z,10.73
2017-12-25T03:17:23.612Z,10.78
2017-12-25T03:18:38.318Z,10.74
2017-12-25T03:19:23.645Z,10.74
2017-12-25T03:20:23.686Z,10.76
2017-12-25T03:21:23.467Z,10.73
2017-12-25T03:22:23.456Z,10.7
2017-12-25T03:23:23.756Z,10.64
2017-12-25T03:24:23.757Z,10.76
2017-12-25T03:25:38.438Z,10.68
2017-12-25T03:27:23.840Z,10.68
2017-12-25T03:28:23.836Z,10.71
2017-12-25T03:29:23.837Z,10.67
2017-12-25T03:30:23.906Z,10.71
2017-12-25T03:31:23.639Z,10.74
2017-12-25T03:32:23.916Z,10.66
2017-12-25T03:33:23.926Z,10.68
2017-12-25T03:34:23.946Z,10.67
2017-12-25T03:35:23.993Z,10.74
2017-12-25T03:36:23.967Z,10.6
2017-12-25T03:37:24.018Z,10.63
2017-12-25T03:38:24.001Z,10.66
2017-12-25T03:39:24.030Z,10.63
2017-12-25T03:40:38.727Z,10.67
2017-12-25T03:41:24.072Z,10.64
2017-12-25T03:42:24.090Z,10.61
2017-12-25T03:43:24.127Z,10.66
2017-12-25T03:44:24.146Z,10.64
2017-12-25T03:45:38.837Z,10.66
2017-12-25T03:46:24.185Z,10.64
2017-12-25T03:47:24.200Z,10.66
2017-12-25T03:48:24.208Z,10.59
2017-12-25T03:49:24.247Z,10.64
2017-12-25T03:50:24.244Z,10.61
2017-12-25T03:51:24.375Z,10.64
2017-12-25T03:52:24.284Z,10.61
2017-12-25T03:53:24.301Z,10.66
2017-12-25T03:54:24.333Z,10.61
2017-12-25T03:56:24.360Z,10.59
2017-12-25T03:57:24.378Z,10.6
2017-12-25T03:58:24.423Z,10.59
2017-12-25T03:59:24.417Z,10.63
2017-12-25T04:00:24.441Z,10.61
2017-12-25T04:01:24.467Z,10.63
2017-12-25T04:02:24.498Z,10.61
2017-12-25T04:03:24.521Z,10.64
2017-12-25T04:04:39.257Z,10.64
2017-12-25T04:05:24.546Z,10.73
2017-12-25T04:06:24.569Z,10.78
2017-12-25T04:07:24.588Z,10.68
2017-12-25T04:08:24.338Z,10.64
2017-12-25T04:10:39.307Z,10.61
2017-12-25T04:11:24.397Z,10.67
2017-12-25T04:12:39.343Z,10.64
2017-12-25T04:13:24.697Z,10.64
2017-12-25T04:14:24.727Z,10.71
2017-12-25T04:15:24.727Z,10.71
2017-12-25T04:16:24.762Z,10.7
2017-12-25T04:17:24.754Z,10.67
2017-12-25T04:18:24.535Z,10.7
2017-12-25T04:19:24.819Z,10.61
2017-12-25T04:21:24.840Z,10.59
2017-12-25T04:22:24.876Z,10.61
2017-12-25T04:23:24.872Z,10.71
2017-12-25T04:24:24.928Z,10.67
2017-12-25T04:25:24.922Z,10.68
2017-12-25T04:26:24.934Z,10.74
2017-12-25T04:27:39.625Z,10.68
2017-12-25T04:28:39.653Z,10.71
2017-12-25T04:29:24.990Z,10.71
2017-12-25T04:30:25.019Z,10.68
2017-12-25T04:31:25.039Z,10.73
2017-12-25T04:32:39.744Z,10.68
2017-12-25T04:34:39.784Z,10.64
2017-12-25T04:36:25.125Z,10.56
2017-12-25T04:37:25.132Z,10.68
2017-12-25T04:38:25.181Z,10.71
2017-12-25T04:39:25.203Z,10.74
2017-12-25T04:40:24.943Z,10.74
2017-12-25T04:41:25.260Z,10.73
2017-12-25T04:42:25.239Z,10.64
2017-12-25T04:43:25.275Z,10.61
2017-12-25T04:44:39.953Z,10.67
2017-12-25T04:45:25.337Z,10.66
2017-12-25T04:46:25.335Z,10.6
2017-12-25T04:49:25.392Z,10.63
2017-12-25T04:50:25.426Z,10.61
2017-12-25T04:51:25.425Z,10.63
2017-12-25T04:52:25.438Z,10.56
2017-12-25T04:53:25.472Z,10.61
2017-12-25T04:54:25.490Z,10.48
2017-12-25T04:55:25.513Z,10.66
2017-12-25T04:56:25.528Z,10.55
2017-12-25T04:57:25.552Z,10.56
2017-12-25T04:58:25.287Z,10.51
2017-12-25T04:59:25.586Z,10.51
2017-12-25T05:00:40.265Z,10.53
2017-12-25T05:01:25.604Z,10.51
2017-12-25T05:02:25.627Z,10.45
2017-12-25T05:03:25.404Z,10.38
2017-12-25T05:04:25.659Z,10.4
2017-12-25T05:05:25.430Z,10.36
2017-12-25T05:06:25.458Z,10.34
2017-12-25T05:07:25.718Z,10.41
2017-12-25T05:08:40.157Z,10.36
2017-12-25T05:09:25.781Z,10.41
2017-12-25T05:10:25.787Z,10.38
2017-12-25T05:11:25.820Z,10.34
2017-12-25T05:12:25.588Z,10.41
2017-12-25T05:13:25.838Z,10.4
2017-12-25T05:14:25.852Z,10.38
2017-12-25T05:15:40.567Z,10.4
2017-12-25T05:17:25.950Z,10.4
2017-12-25T05:19:25.939Z,10.23
2017-12-25T05:21:40.662Z,10.32
2017-12-25T05:22:25.774Z,10.36
2017-12-25T05:23:26.034Z,10.29
2017-12-25T05:24:25.796Z,10.26
2017-12-25T05:25:25.832Z,10.36
2017-12-25T05:26:26.103Z,10.36
2017-12-25T05:27:26.120Z,10.33
2017-12-25T05:28:26.241Z,10.36
2017-12-25T05:29:40.818Z,10.38
2017-12-25T05:30:26.198Z,10.4
2017-12-25T05:31:26.196Z,10.36
2017-12-25T05:32:26.196Z,10.44
2017-12-25T05:33:26.238Z,10.34
2017-12-25T05:34:26.254Z,10.34
2017-12-25T05:35:26.253Z,10.32
2017-12-25T05:37:26.290Z,10.36
2017-12-25T05:39:26.086Z,10.36
2017-12-25T05:40:26.363Z,10.33
2017-12-25T05:41:26.363Z,10.25
2017-12-25T05:42:26.140Z,10.15
2017-12-25T05:43:26.414Z,10.29
2017-12-25T05:44:26.174Z,10.25
2017-12-25T05:45:26.195Z,10.23
2017-12-25T05:46:26.460Z,10.25
2017-12-25T05:47:41.171Z,10.23
2017-12-25T05:48:26.528Z,10.26
2017-12-25T05:49:26.543Z,10.32
2017-12-25T05:50:26.540Z,10.33
2017-12-25T05:51:26.328Z,10.4
2017-12-25T05:52:26.344Z,10.38
2017-12-25T05:53:26.345Z,10.32
2017-12-25T05:54:26.656Z,10.3
2017-12-25T05:55:26.387Z,10.23
2017-12-25T05:56:26.655Z,10.29
2017-12-25T05:57:26.674Z,10.29
2017-12-25T05:58:26.688Z,10.23
2017-12-25T05:59:26.700Z,10.25
2017-12-25T06:00:26.742Z,10.26
2017-12-25T06:01:26.772Z,10.27
2017-12-25T06:02:26.813Z,10.29
2017-12-25T06:03:41.464Z,10.26
2017-12-25T06:05:26.814Z,10.22
2017-12-25T06:06:26.842Z,10.26
2017-12-25T06:07:26.861Z,10.26
2017-12-25T06:08:26.894Z,10.29
2017-12-25T06:09:26.927Z,10.27
2017-12-25T06:10:41.600Z,10.29
2017-12-25T06:11:26.976Z,10.3
2017-12-25T06:12:27.002Z,10.25
2017-12-25T06:13:26.996Z,10.27
2017-12-25T06:14:27.018Z,10.2
2017-12-25T06:15:27.048Z,10.29
2017-12-25T06:16:27.032Z,10.25
2017-12-25T06:17:27.051Z,10.27
2017-12-25T06:18:27.065Z,10.22
2017-12-25T06:19:41.790Z,10.26
2017-12-25T06:20:27.119Z,10.2
2017-12-25T06:21:27.161Z,10.27
2017-12-25T06:22:27.172Z,10.23
2017-12-25T06:23:27.189Z,10.18
2017-12-25T06:24:27.205Z,10.27
2017-12-25T06:25:27.224Z,10.23
2017-12-25T06:26:27.239Z,10.3
2017-12-25T06:27:27.250Z,10.26
2017-12-25T06:28:27.308Z,10.26
2017-12-25T06:29:27.322Z,10.23
2017-12-25T06:30:27.326Z,10.12
2017-12-25T06:31:27.332Z,10.14
2017-12-25T06:32:27.458Z,10.27
2017-12-25T06:33:27.406Z,10.14
2017-12-25T06:34:27.381Z,10.29
2017-12-25T06:35:42.096Z,10.2
2017-12-25T06:36:27.463Z,10.27
2017-12-25T06:37:27.450Z,10.29
2017-12-25T06:38:27.453Z,10.27
2017-12-25T06:39:27.496Z,10.22
2017-12-25T06:40:27.261Z,10.27
2017-12-25T06:41:27.524Z,10.27
2017-12-25T06:42:27.550Z,10.36
2017-12-25T06:43:27.587Z,10.33
2017-12-25T06:44:27.576Z,10.29
2017-12-25T06:45:27.623Z,10.32
2017-12-25T06:46:27.630Z,10.33
2017-12-25T06:47:27.380Z,10.3
2017-12-25T06:48:27.665Z,10.29
2017-12-25T06:49:27.675Z,10.3
2017-12-25T06:50:42.363Z,10.29
2017-12-25T06:53:27.735Z,10.3
2017-12-25T06:54:27.787Z,10.17
2017-12-25T06:55:27.785Z,10.2
2017-12-25T06:56:27.569Z,10.27
2017-12-25T06:57:27.828Z,10.26
2017-12-25T06:58:27.844Z,10.26
2017-12-25T06:59:27.855Z,10.18
2017-12-25T07:00:27.903Z,10.18
2017-12-25T07:01:27.898Z,10.29
2017-12-25T07:02:42.599Z,10.27
2017-12-25T07:03:42.629Z,10.18
2017-12-25T07:04:27.948Z,10.32
2017-12-25T07:05:27.991Z,10.14
2017-12-25T07:06:28.010Z,10.18
2017-12-25T07:07:27.772Z,10.15
2017-12-25T07:08:28.044Z,10.17
2017-12-25T07:09:28.084Z,10.17
2017-12-25T07:10:28.087Z,10.18
2017-12-25T07:11:28.080Z,10.2
2017-12-25T07:12:42.778Z,10.15
2017-12-25T07:13:28.156Z,10.27
2017-12-25T07:14:28.155Z,10.26
2017-12-25T07:15:28.186Z,10.26
2017-12-25T07:16:28.186Z,10.23
2017-12-25T07:17:28.217Z,10.26
2017-12-25T07:18:28.262Z,10.22
2017-12-25T07:19:28.259Z,10.2
2017-12-25T07:20:28.254Z,10.15
2017-12-25T07:22:42.972Z,10.17
2017-12-25T07:23:28.324Z,10.18
2017-12-25T07:24:28.077Z,10.23
2017-12-25T07:25:28.355Z,10.26
2017-12-25T07:26:28.375Z,10.33
2017-12-25T07:28:28.436Z,10.3
2017-12-25T07:29:28.441Z,10.29
2017-12-25T07:30:42.925Z,10.27
2017-12-25T07:31:28.470Z,10.25
2017-12-25T07:32:28.473Z,10.22
2017-12-25T07:33:28.497Z,10.25
2017-12-25T07:35:28.572Z,10.27
2017-12-25T07:36:28.584Z,10.26
2017-12-25T07:37:43.252Z,10.26
2017-12-25T07:38:43.031Z,10.26
2017-12-25T07:39:28.372Z,10.27
2017-12-25T07:40:28.661Z,10.29
2017-12-25T07:42:28.699Z,10.26
2017-12-25T07:43:28.709Z,10.25
2017-12-25T07:44:43.394Z,10.25
2017-12-25T07:45:28.734Z,10.34
2017-12-25T07:46:28.777Z,10.32
2017-12-25T07:47:28.804Z,10.32
2017-12-25T07:48:28.814Z,10.27
2017-12-25T07:50:28.834Z,10.33
2017-12-25T07:51:28.858Z,10.36
2017-12-25T07:52:28.907Z,10.34
2017-12-25T07:53:28.650Z,10.29
2017-12-25T07:54:43.599Z,10.33
2017-12-25T07:55:28.917Z,10.4
2017-12-25T07:56:28.935Z,10.38
2017-12-25T07:57:43.383Z,10.32
2017-12-25T07:58:28.992Z,10.27
2017-12-25T07:59:29.037Z,10.34
2017-12-25T08:00:28.765Z,10.29
2017-12-25T08:01:29.083Z,10.41
2017-12-25T08:02:29.086Z,10.25
2017-12-25T08:03:29.093Z,10.23
2017-12-25T08:04:29.121Z,10.29
2017-12-25T08:05:29.156Z,10.27
2017-12-25T08:06:29.124Z,10.26
2017-12-25T08:08:29.167Z,10.25
2017-12-25T08:09:29.184Z,10.17
2017-12-25T08:10:43.895Z,10.17
2017-12-25T08:11:29.229Z,10.32
2017-12-25T08:12:29.270Z,10.33
2017-12-25T08:13:29.286Z,10.23
2017-12-25T08:14:29.300Z,10.25
2017-12-25T08:15:29.325Z,10.29
2017-12-25T08:16:43.998Z,10.2
2017-12-25T08:17:29.396Z,10.22
2017-12-25T08:18:29.390Z,10.2
2017-12-25T08:19:29.376Z,10.26
2017-12-25T08:20:29.396Z,10.29
2017-12-25T08:21:29.450Z,10.26
2017-12-25T08:22:29.455Z,10.18
2017-12-25T08:24:29.522Z,10.2
2017-12-25T08:25:44.195Z,10.33
2017-12-25T08:26:29.516Z,10.27
2017-12-25T08:27:29.549Z,10.26
2017-12-25T08:28:29.566Z,10.26
2017-12-25T08:29:29.591Z,10.29
2017-12-25T08:30:29.614Z,10.14
2017-12-25T08:31:29.627Z,10.22
2017-12-25T08:32:29.635Z,10.18
2017-12-25T08:33:29.651Z,10.17
2017-12-25T08:34:29.678Z,10.26
2017-12-25T08:35:29.732Z,10.26
2017-12-25T08:36:29.448Z,10.18
2017-12-25T08:37:29.252Z,10.29
2017-12-25T08:38:29.759Z,10.25
2017-12-25T08:39:29.821Z,10.23
2017-12-25T08:40:29.811Z,10.26
2017-12-25T08:41:29.562Z,10.23
2017-12-25T08:42:29.590Z,10.25
2017-12-25T08:43:29.858Z,10.32
2017-12-25T08:44:29.859Z,10.33
2017-12-25T08:45:29.896Z,10.41
2017-12-25T08:46:29.901Z,10.47
2017-12-25T08:47:29.938Z,10.38
2017-12-25T08:48:29.949Z,10.36
2017-12-25T08:49:29.959Z,10.44
2017-12-25T08:50:29.980Z,10.41
2017-12-25T08:51:30.024Z,10.41
2017-12-25T08:52:30.016Z,10.34
2017-12-25T08:53:30.047Z,10.45
2017-12-25T08:54:30.089Z,10.36
2017-12-25T08:55:30.060Z,10.48
2017-12-25T08:56:30.107Z,10.48
2017-12-25T08:57:44.797Z,10.53
2017-12-25T08:58:30.126Z,10.47
2017-12-25T08:59:44.849Z,10.45
2017-12-25T09:00:30.206Z,10.6
2017-12-25T09:01:30.184Z,10.59
2017-12-25T09:02:30.223Z,10.55
2017-12-25T09:03:30.260Z,10.48
2017-12-25T09:04:30.021Z,10.59
2017-12-25T09:05:30.266Z,10.45
2017-12-25T09:06:30.302Z,10.6
2017-12-25T09:07:30.342Z,10.56
2017-12-25T09:08:30.321Z,10.63
2017-12-25T09:09:30.361Z,10.51
2017-12-25T09:10:45.028Z,10.53
2017-12-25T09:11:30.140Z,10.56
2017-12-25T09:12:30.435Z,10.55
2017-12-25T09:13:45.145Z,10.61
2017-12-25T09:14:30.455Z,10.59
2017-12-25T09:15:30.201Z,10.64
2017-12-25T09:16:30.499Z,10.64
2017-12-25T09:17:30.505Z,10.67
2017-12-25T09:19:30.559Z,10.59
2017-12-25T09:20:30.569Z,10.68
2017-12-25T09:21:30.626Z,10.71
2017-12-25T09:22:30.604Z,10.66
2017-12-25T09:23:30.605Z,10.76
2017-12-25T09:25:30.643Z,10.64
2017-12-25T09:26:30.666Z,10.64
2017-12-25T09:27:30.696Z,10.63
2017-12-25T09:28:30.471Z,10.61
2017-12-25T09:29:45.398Z,10.63
2017-12-25T09:30:30.777Z,10.63
2017-12-25T09:31:30.794Z,10.67
2017-12-25T09:32:30.789Z,10.66
2017-12-25T09:33:30.820Z,10.73
2017-12-25T09:34:30.567Z,10.76
2017-12-25T09:35:30.867Z,10.73
2017-12-25T09:36:45.534Z,10.73
2017-12-25T09:37:30.892Z,10.74
2017-12-25T09:38:30.928Z,10.79
2017-12-25T09:40:30.978Z,10.68
2017-12-25T09:41:30.952Z,10.7
2017-12-25T09:43:31.072Z,10.84
2017-12-25T09:45:45.696Z,10.76
2017-12-25T09:46:31.064Z,10.7
2017-12-25T09:47:31.063Z,10.86
2017-12-25T09:48:31.117Z,10.85
2017-12-25T09:49:31.132Z,10.74
2017-12-25T09:50:45.818Z,10.79
2017-12-25T09:51:31.198Z,10.71
2017-12-25T09:52:31.153Z,10.79
2017-12-25T09:53:31.211Z,10.67
2017-12-25T09:54:31.224Z,10.79
2017-12-25T09:55:45.895Z,10.88
2017-12-25T09:56:31.271Z,10.88
2017-12-25T09:57:31.275Z,10.94
2017-12-25T09:58:31.029Z,10.86
2017-12-25T09:59:31.320Z,10.7
2017-12-25T10:00:45.994Z,10.79
2017-12-25T10:02:31.379Z,10.73
2017-12-25T10:04:45.819Z,10.71
2017-12-25T10:05:31.461Z,10.68
2017-12-25T10:06:31.431Z,10.73
2017-12-25T10:07:46.131Z,10.61
2017-12-25T10:08:31.250Z,10.7
2017-12-25T10:09:31.488Z,10.7
2017-12-25T10:10:31.276Z,10.66
2017-12-25T10:11:31.535Z,10.61
2017-12-25T10:12:31.568Z,10.63
2017-12-25T10:13:46.268Z,10.67
2017-12-25T10:14:31.589Z,10.67
2017-12-25T10:15:31.366Z,10.6
2017-12-25T10:16:31.661Z,10.53
2017-12-25T10:17:31.645Z,10.59
2017-12-25T10:18:31.699Z,10.55
2017-12-25T10:19:31.435Z,10.61
2017-12-25T10:20:31.734Z,10.61
2017-12-25T10:21:31.769Z,10.67
2017-12-25T10:22:31.780Z,10.68
2017-12-25T10:23:46.444Z,10.66
2017-12-25T10:24:31.801Z,10.74
2017-12-25T10:27:31.850Z,10.64
2017-12-25T10:28:31.880Z,10.61
2017-12-25T10:30:31.920Z,10.63
2017-12-25T10:31:31.934Z,10.64
2017-12-25T10:32:46.634Z,10.56
2017-12-25T10:33:31.958Z,10.64
2017-12-25T10:34:31.983Z,10.61
2017-12-25T10:35:32.007Z,10.71
2017-12-25T10:36:32.008Z,10.67
2017-12-25T10:37:32.059Z,10.7
2017-12-25T10:38:46.755Z,10.66
2017-12-25T10:39:32.093Z,10.61
2017-12-25T10:41:32.110Z,10.55
2017-12-25T10:42:32.269Z,10.48
2017-12-25T10:43:32.146Z,10.64
2017-12-25T10:44:32.198Z,10.63
2017-12-25T10:45:32.190Z,10.56
2017-12-25T10:46:32.216Z,10.66
2017-12-25T10:47:32.243Z,10.67
2017-12-25T10:48:46.919Z,10.68
2017-12-25T10:49:32.017Z,10.68
2017-12-25T10:50:32.301Z,10.68
2017-12-25T10:51:32.074Z,10.67
2017-12-25T10:52:32.354Z,10.7
2017-12-25T10:53:32.349Z,10.67
2017-12-25T10:54:32.429Z,10.67
2017-12-25T10:55:47.060Z,10.68
2017-12-25T10:57:32.455Z,10.71
2017-12-25T10:58:32.468Z,10.71
2017-12-25T10:59:47.153Z,10.74
2017-12-25T11:00:32.484Z,10.78
2017-12-25T11:01:32.523Z,10.7
2017-12-25T11:02:32.546Z,10.79
2017-12-25T11:03:32.288Z,10.68
2017-12-25T11:04:47.236Z,10.67
2017-12-25T11:05:32.575Z,10.66
2017-12-25T11:06:32.601Z,10.61
2017-12-25T11:07:32.636Z,10.61
2017-12-25T11:08:32.400Z,10.61
2017-12-25T11:09:32.700Z,10.66
2017-12-25T11:10:32.670Z,10.61
2017-12-25T11:11:32.718Z,10.66
2017-12-25T11:12:32.719Z,10.61
2017-12-25T11:13:47.152Z,10.56
2017-12-25T11:14:32.776Z,10.51
2017-12-25T11:15:47.215Z,10.55
2017-12-25T11:16:32.548Z,10.52
2017-12-25T11:17:32.853Z,10.48
2017-12-25T11:18:32.615Z,10.51
2017-12-25T11:19:32.849Z,10.56
2017-12-25T11:20:47.565Z,10.51
2017-12-25T11:21:32.941Z,10.67
2017-12-25T11:22:32.937Z,10.56
2017-12-25T11:24:32.689Z,10.63
2017-12-25T11:25:32.980Z,10.51
2017-12-25T11:26:33.004Z,10.64
2017-12-25T11:27:33.000Z,10.63
2017-12-25T11:28:33.066Z,10.66
2017-12-25T11:29:33.044Z,10.64
2017-12-25T11:30:33.064Z,10.6
2017-12-25T11:31:33.089Z,10.68
2017-12-25T11:32:33.169Z,10.66
2017-12-25T11:33:33.117Z,10.61
2017-12-25T11:34:33.142Z,10.61
2017-12-25T11:35:47.845Z,10.59
2017-12-25T11:36:33.203Z,10.66
2017-12-25T11:37:33.239Z,10.64
2017-12-25T11:38:33.240Z,10.64
2017-12-25T11:39:33.268Z,10.63
2017-12-25T11:40:33.280Z,10.68
2017-12-25T11:41:33.310Z,10.71
2017-12-25T11:42:33.319Z,10.68
2017-12-25T11:43:33.329Z,10.73
2017-12-25T11:44:33.384Z,10.6
2017-12-25T11:45:33.353Z,10.56
2017-12-25T11:46:33.379Z,10.71
2017-12-25T11:47:33.459Z,10.64
2017-12-25T11:48:33.410Z,10.63
2017-12-25T11:49:33.436Z,10.64
2017-12-25T11:50:33.480Z,10.48
2017-12-25T11:53:33.507Z,10.52
2017-12-25T11:54:33.280Z,10.48
2017-12-25T11:55:33.560Z,10.51
2017-12-25T11:56:33.684Z,10.59
2017-12-25T11:57:33.611Z,10.48
2017-12-25T11:58:33.678Z,10.6
2017-12-25T11:59:33.646Z,10.73
2017-12-25T12:00:33.657Z,10.64
2017-12-25T12:01:33.698Z,10.64
2017-12-25T12:02:33.711Z,10.63
2017-12-25T12:03:33.719Z,10.63
2017-12-25T12:04:33.728Z,10.45
2017-12-25T12:05:33.752Z,10.63
2017-12-25T12:06:48.441Z,10.55
2017-12-25T12:07:48.456Z,10.59
2017-12-25T12:08:33.831Z,10.59
2017-12-25T12:09:33.817Z,10.64
2017-12-25T12:11:33.884Z,10.61
2017-12-25T12:12:33.896Z,10.61
2017-12-25T12:13:33.999Z,10.61
2017-12-25T12:14:33.953Z,10.64
2017-12-25T12:15:34.006Z,10.56
2017-12-25T12:16:48.649Z,10.42
2017-12-25T12:17:33.993Z,10.47
2017-12-25T12:18:33.988Z,10.52
2017-12-25T12:19:34.062Z,10.44
2017-12-25T12:20:34.042Z,10.48
2017-12-25T12:22:34.093Z,10.45
2017-12-25T12:23:48.785Z,10.47
2017-12-25T12:25:34.138Z,10.52
2017-12-25T12:26:34.184Z,10.53
2017-12-25T12:27:34.171Z,10.52
2017-12-25T12:28:34.210Z,10.47
2017-12-25T12:29:34.206Z,10.48
2017-12-25T12:30:48.909Z,10.48
2017-12-25T12:31:34.242Z,10.51
2017-12-25T12:32:48.947Z,10.51
2017-12-25T12:33:34.280Z,10.51
2017-12-25T12:34:34.051Z,10.52
2017-12-25T12:35:34.345Z,10.52
2017-12-25T12:36:34.337Z,10.52
2017-12-25T12:37:34.111Z,10.52
2017-12-25T12:38:34.414Z,10.51
2017-12-25T12:39:49.101Z,10.45
2017-12-25T12:40:34.440Z,10.53
2017-12-25T12:41:34.534Z,10.47
2017-12-25T12:42:34.478Z,10.42
2017-12-25T12:43:34.496Z,10.51
2017-12-25T12:44:49.194Z,10.52
2017-12-25T12:45:34.552Z,10.56
2017-12-25T12:46:49.216Z,10.52
2017-12-25T12:47:34.573Z,10.53
2017-12-25T12:48:34.577Z,10.61
2017-12-25T12:49:34.603Z,10.47
2017-12-25T12:50:34.368Z,10.59
2017-12-25T12:51:34.634Z,10.53
2017-12-25T12:52:34.780Z,10.56
2017-12-25T12:53:34.440Z,10.6
2017-12-25T12:54:34.713Z,10.64
2017-12-25T12:55:49.131Z,10.66
2017-12-25T12:57:34.777Z,10.55
2017-12-25T12:58:34.808Z,10.51
2017-12-25T13:00:34.806Z,10.38
2017-12-25T13:01:34.820Z,10.32
2017-12-25T13:02:34.867Z,10.44
2017-12-25T13:03:34.886Z,10.42
2017-12-25T13:04:34.900Z,10.38
2017-12-25T13:05:34.904Z,10.38
2017-12-25T13:06:34.958Z,10.33
2017-12-25T13:07:34.971Z,10.25
2017-12-25T13:08:34.983Z,10.22
2017-12-25T13:09:34.999Z,10.26
2017-12-25T13:10:49.677Z,10.26
2017-12-25T13:11:35.054Z,10.23
2017-12-25T13:12:35.042Z,10.27
2017-12-25T13:13:35.060Z,10.29
2017-12-25T13:14:34.846Z,10.26
2017-12-25T13:16:35.127Z,10.26
2017-12-25T13:17:35.162Z,10.27
2017-12-25T13:18:34.896Z,10.32
2017-12-25T13:19:35.216Z,10.23
2017-12-25T13:20:35.200Z,10.25
2017-12-25T13:21:34.958Z,10.22
2017-12-25T13:22:34.987Z,10.29
2017-12-25T13:23:34.995Z,10.2
2017-12-25T13:25:35.292Z,10.22
2017-12-25T13:26:35.068Z,10.22
2017-12-25T13:27:35.075Z,10.17
2017-12-25T13:28:35.351Z,10.18
2017-12-25T13:29:35.394Z,10.23
2017-12-25T13:30:35.408Z,10.25
2017-12-25T13:32:35.186Z,10.23
2017-12-25T13:33:35.478Z,10.25
2017-12-25T13:34:35.491Z,10.22
2017-12-25T13:35:35.498Z,10.2
2017-12-25T13:36:35.542Z,10.22
2017-12-25T13:37:35.371Z,10.15
2017-12-25T13:38:35.539Z,10.15
2017-12-25T13:39:35.576Z,10.22
2017-12-25T13:40:35.570Z,10.22
2017-12-25T13:41:35.621Z,10.25
2017-12-25T13:42:50.282Z,10.29
2017-12-25T13:43:35.408Z,10.27
2017-12-25T13:44:35.689Z,10.17
2017-12-25T13:45:35.687Z,10.18
2017-12-25T13:46:35.718Z,10.17
2017-12-25T13:48:35.770Z,10.17
2017-12-25T13:49:35.769Z,10.15
2017-12-25T13:50:35.876Z,10.15
2017-12-25T13:51:35.546Z,10.23
2017-12-25T13:52:35.827Z,10.17
2017-12-25T13:53:35.840Z,10.17
2017-12-25T13:54:35.847Z,10.2
2017-12-25T13:55:35.880Z,10.23
2017-12-25T13:56:50.554Z,10.2
2017-12-25T13:57:35.917Z,10.18